GABS

Senou Airport

Senou, Mali
METAR GABS 162230Z 02004KT CAVOK 25/03 Q1014 NOSIG
Observed Flight Rules
Jan-16 @ 22:30 UTC (48 minutes ago) Visual Flight Rules
Wind Visibility Clouds
20° at 4 knots 10,000+ meters
  • Clear skies
Temperatures Readings
Current 25°C / 77°F
Dewpoint 3°C / 37°F
Humidity 24%
Altimeter 29.94" Hg
Pressure 1013.92 hPa
Elevation 381
METAR GABS 162230Z 02004KT CAVOK 25/03 Q1014 NOSIG
Observed Flight Rules
Jan-16 @ 22:30 UTC
(48 minutes ago)
VFR
Wind Visibility
20° at 4 knots 10,000+ meters
Clouds
  • Clear skies
Temperature Dewpoint
25°C / 77°F 3°C / 37°F
Humidity Altimeter Pressure
24% 29.94" Hg 1013.92 hPa